This is the latest recevied weather packets stored in our database for station/object KC1TEM-13. If no packets are shown the sender has not sent any weather packets the latest 10 day(s).
| Time | Temp. | Humidity | Pressure | Rain* | Wind** | Luminosity | Snow |
|---|---|---|---|---|---|---|---|
| 1787934646 | 26.11° C | 72% | 1016.3 hPa | 0 mm | - | 223 W/m² | - |
| 1787934354 | 26.11° C | 72% | 1016.4 hPa | 0 mm | - | 425 W/m² | - |
| 1787934044 | 26.11° C | 75% | 1016.2 hPa | 0 mm | - | 304 W/m² | - |
| 1787933744 | 26.67° C | 71% | 1016.3 hPa | 0 mm | - | 190 W/m² | - |
| 1787933439 | 26.67° C | 69% | 1016.3 hPa | 0 mm | - | 227 W/m² | - |
| 1787933138 | 26.67° C | 71% | 1016.3 hPa | 0 mm | - | 328 W/m² | - |
| 1787932833 | 27.22° C | 70% | 1016.3 hPa | 0 mm | - | 806 W/m² | - |
| 1787932527 | 26.67° C | 73% | 1016.3 hPa | 0 mm | - | 551 W/m² | - |
| 1787932221 | 26.11° C | 73% | 1016.4 hPa | 0 mm | - | 794 W/m² | - |
| 1787931921 | 25.56° C | 73% | 1016.4 hPa | 0 mm | - | 425 W/m² | - |
| 1787931620 | 25.56° C | 73% | 1016.5 hPa | 0 mm | - | 303 W/m² | - |
| 1787931316 | 26.11° C | 72% | 1016.6 hPa | 0 mm | - | 289 W/m² | - |
| 1787931021 | 26.11° C | 73% | 1016.4 hPa | 0 mm | - | 306 W/m² | - |
| 1787930714 | 25.56° C | 77% | 1016.6 hPa | 0 mm | - | 761 W/m² | - |
| 1787930409 | 25° C | 79% | 1016.9 hPa | 0 mm | - | 229 W/m² | - |
| 1787930113 | 25° C | 78% | 1016.8 hPa | 0 mm | - | 213 W/m² | - |
| 1787929803 | 25° C | 76% | 1016.5 hPa | 0 mm | - | 221 W/m² | - |
| 1787929498 | 25.56° C | 75% | 1016.7 hPa | 0 mm | - | 240 W/m² | - |
| 1787929205 | 25.56° C | 77% | 1016.6 hPa | 0 mm | - | 728 W/m² | - |
| 1787928891 | 25° C | 80% | 1016.8 hPa | 0 mm | - | 459 W/m² | - |
| 1787928591 | 25° C | 78% | 1016.7 hPa | 0 mm | - | 443 W/m² | - |
| 1787928289 | 25° C | 79% | 1016.8 hPa | 0 mm | - | 235 W/m² | - |
| 1787927988 | 25° C | 79% | 1016.6 hPa | 0 mm | - | 208 W/m² | - |
| 1787927683 | 25° C | 79% | 1016.5 hPa | 0 mm | - | 287 W/m² | - |
| 1787927382 | 25° C | 80% | 1016.3 hPa | 0 mm | - | 410 W/m² | - |
* Rain latest hour (hover to see other rain measurements)
** Current wind speed in m/s (hover to see current wind gust speed)